sensor_id;sensor_type;location;lat;lon;timestamp;temperature;humidity
14471;DHT22;7321;50.802;4.336;2023-03-04T00:02:06;6.50;99.90
14471;DHT22;7321;50.802;4.336;2023-03-04T00:04:31;6.60;99.90
14471;DHT22;7321;50.802;4.336;2023-03-04T00:06:57;6.70;99.90
14471;DHT22;7321;50.802;4.336;2023-03-04T00:09:23;6.60;99.90
14471;DHT22;7321;50.802;4.336;2023-03-04T00:11:49;6.70;99.90
14471;DHT22;7321;50.802;4.336;2023-03-04T00:14:14;6.70;99.90
14471;DHT22;7321;50.802;4.336;2023-03-04T00:16:43;6.70;99.90
14471;DHT22;7321;50.802;4.336;2023-03-04T00:19:10;6.70;99.90
14471;DHT22;7321;50.802;4.336;2023-03-04T00:21:36;6.70;99.90
14471;DHT22;7321;50.802;4.336;2023-03-04T00:24:02;6.70;99.90
14471;DHT22;7321;50.802;4.336;2023-03-04T00:26:28;6.60;99.90
14471;DHT22;7321;50.802;4.336;2023-03-04T00:28:54;6.50;99.90
14471;DHT22;7321;50.802;4.336;2023-03-04T00:31:19;6.60;99.90
14471;DHT22;7321;50.802;4.336;2023-03-04T00:33:45;6.60;99.90
14471;DHT22;7321;50.802;4.336;2023-03-04T00:36:11;6.50;99.90
14471;DHT22;7321;50.802;4.336;2023-03-04T00:38:37;6.60;99.90
14471;DHT22;7321;50.802;4.336;2023-03-04T00:41:03;6.60;99.90
14471;DHT22;7321;50.802;4.336;2023-03-04T00:43:29;6.70;99.90
14471;DHT22;7321;50.802;4.336;2023-03-04T00:45:56;6.70;99.90
14471;DHT22;7321;50.802;4.336;2023-03-04T00:48:22;6.70;99.90
14471;DHT22;7321;50.802;4.336;2023-03-04T00:50:48;6.80;99.90
14471;DHT22;7321;50.802;4.336;2023-03-04T00:53:16;6.80;99.90
14471;DHT22;7321;50.802;4.336;2023-03-04T00:55:41;6.80;99.90
14471;DHT22;7321;50.802;4.336;2023-03-04T00:58:07;6.80;99.90
14471;DHT22;7321;50.802;4.336;2023-03-04T01:00:33;6.80;99.90
14471;DHT22;7321;50.802;4.336;2023-03-04T01:02:59;6.70;99.90
14471;DHT22;7321;50.802;4.336;2023-03-04T01:05:25;6.50;99.90
14471;DHT22;7321;50.802;4.336;2023-03-04T01:07:51;6.50;99.90
14471;DHT22;7321;50.802;4.336;2023-03-04T01:10:17;6.60;99.90
14471;DHT22;7321;50.802;4.336;2023-03-04T01:12:43;6.70;99.90
14471;DHT22;7321;50.802;4.336;2023-03-04T01:15:11;6.80;99.90
14471;DHT22;7321;50.802;4.336;2023-03-04T01:17:37;6.80;99.90
14471;DHT22;7321;50.802;4.336;2023-03-04T01:20:05;6.90;99.90
14471;DHT22;7321;50.802;4.336;2023-03-04T01:22:31;6.90;99.90
14471;DHT22;7321;50.802;4.336;2023-03-04T01:24:57;6.90;99.90
14471;DHT22;7321;50.802;4.336;2023-03-04T01:27:23;6.90;99.90
14471;DHT22;7321;50.802;4.336;2023-03-04T01:29:48;7.00;99.90
14471;DHT22;7321;50.802;4.336;2023-03-04T01:32:14;7.10;99.90
14471;DHT22;7321;50.802;4.336;2023-03-04T01:34:40;7.10;99.90
14471;DHT22;7321;50.802;4.336;2023-03-04T01:37:06;7.00;99.90
14471;DHT22;7321;50.802;4.336;2023-03-04T01:39:32;6.90;99.90
14471;DHT22;7321;50.802;4.336;2023-03-04T01:41:57;6.90;99.90
14471;DHT22;7321;50.802;4.336;2023-03-04T01:44:23;6.90;99.90
14471;DHT22;7321;50.802;4.336;2023-03-04T01:46:52;6.90;99.90
14471;DHT22;7321;50.802;4.336;2023-03-04T01:49:19;6.80;99.90
14471;DHT22;7321;50.802;4.336;2023-03-04T01:51:52;6.80;99.90
14471;DHT22;7321;50.802;4.336;2023-03-04T01:54:19;6.70;99.90
14471;DHT22;7321;50.802;4.336;2023-03-04T01:56:47;6.80;99.90
14471;DHT22;7321;50.802;4.336;2023-03-04T01:59:19;6.90;99.90
14471;DHT22;7321;50.802;4.336;2023-03-04T02:01:51;7.10;99.90
14471;DHT22;7321;50.802;4.336;2023-03-04T02:04:19;7.00;99.90
14471;DHT22;7321;50.802;4.336;2023-03-04T02:06:46;6.90;99.90
14471;DHT22;7321;50.802;4.336;2023-03-04T02:09:13;6.90;99.90
14471;DHT22;7321;50.802;4.336;2023-03-04T02:11:40;6.80;99.90
14471;DHT22;7321;50.802;4.336;2023-03-04T02:14:06;6.80;99.90
14471;DHT22;7321;50.802;4.336;2023-03-04T02:16:31;6.70;99.90
14471;DHT22;7321;50.802;4.336;2023-03-04T02:18:58;6.90;99.90
14471;DHT22;7321;50.802;4.336;2023-03-04T02:21:32;6.80;99.90
14471;DHT22;7321;50.802;4.336;2023-03-04T02:26:50;6.80;99.90
14471;DHT22;7321;50.802;4.336;2023-03-04T02:29:16;6.90;99.90
14471;DHT22;7321;50.802;4.336;2023-03-04T02:31:50;7.00;99.90
14471;DHT22;7321;50.802;4.336;2023-03-04T02:36:45;6.90;99.90
14471;DHT22;7321;50.802;4.336;2023-03-04T02:41:38;6.70;99.90
14471;DHT22;7321;50.802;4.336;2023-03-04T02:44:18;6.80;99.90
14471;DHT22;7321;50.802;4.336;2023-03-04T02:46:45;6.80;99.90
14471;DHT22;7321;50.802;4.336;2023-03-04T02:49:11;6.80;99.90
14471;DHT22;7321;50.802;4.336;2023-03-04T02:51:38;7.00;99.90
14471;DHT22;7321;50.802;4.336;2023-03-04T02:54:04;7.10;99.90
14471;DHT22;7321;50.802;4.336;2023-03-04T02:56:30;7.10;99.90
14471;DHT22;7321;50.802;4.336;2023-03-04T02:58:55;7.10;99.90
14471;DHT22;7321;50.802;4.336;2023-03-04T03:01:21;7.20;99.90
14471;DHT22;7321;50.802;4.336;2023-03-04T03:03:47;7.10;99.90
14471;DHT22;7321;50.802;4.336;2023-03-04T03:06:13;7.10;99.90
14471;DHT22;7321;50.802;4.336;2023-03-04T03:08:39;7.10;99.90
14471;DHT22;7321;50.802;4.336;2023-03-04T03:11:05;7.00;99.90
14471;DHT22;7321;50.802;4.336;2023-03-04T03:13:32;6.80;99.90
14471;DHT22;7321;50.802;4.336;2023-03-04T03:15:58;6.90;99.90
14471;DHT22;7321;50.802;4.336;2023-03-04T03:18:23;7.00;99.90
14471;DHT22;7321;50.802;4.336;2023-03-04T03:20:49;7.30;99.90
14471;DHT22;7321;50.802;4.336;2023-03-04T03:23:15;7.40;99.90
14471;DHT22;7321;50.802;4.336;2023-03-04T03:25:42;7.40;99.90
14471;DHT22;7321;50.802;4.336;2023-03-04T03:28:08;7.40;99.90
14471;DHT22;7321;50.802;4.336;2023-03-04T03:30:34;7.40;99.90
14471;DHT22;7321;50.802;4.336;2023-03-04T03:33:00;7.50;99.90
14471;DHT22;7321;50.802;4.336;2023-03-04T03:35:26;7.40;99.90
14471;DHT22;7321;50.802;4.336;2023-03-04T03:37:52;7.50;99.90
14471;DHT22;7321;50.802;4.336;2023-03-04T03:40:18;7.60;99.90
14471;DHT22;7321;50.802;4.336;2023-03-04T03:42:44;7.60;99.90
14471;DHT22;7321;50.802;4.336;2023-03-04T03:45:10;7.60;99.90
14471;DHT22;7321;50.802;4.336;2023-03-04T03:47:35;7.60;99.90
14471;DHT22;7321;50.802;4.336;2023-03-04T03:50:02;7.70;99.90
14471;DHT22;7321;50.802;4.336;2023-03-04T03:52:28;7.80;99.90
14471;DHT22;7321;50.802;4.336;2023-03-04T03:54:53;7.60;99.90
14471;DHT22;7321;50.802;4.336;2023-03-04T03:57:19;7.60;99.90
14471;DHT22;7321;50.802;4.336;2023-03-04T03:59:45;7.60;99.90
14471;DHT22;7321;50.802;4.336;2023-03-04T04:02:11;7.50;99.90
14471;DHT22;7321;50.802;4.336;2023-03-04T04:04:37;7.50;99.90
14471;DHT22;7321;50.802;4.336;2023-03-04T04:07:02;7.50;99.90
14471;DHT22;7321;50.802;4.336;2023-03-04T04:09:28;7.60;99.90
14471;DHT22;7321;50.802;4.336;2023-03-04T04:11:55;7.40;99.90
14471;DHT22;7321;50.802;4.336;2023-03-04T04:14:20;7.50;99.90
14471;DHT22;7321;50.802;4.336;2023-03-04T04:16:46;7.40;99.90
14471;DHT22;7321;50.802;4.336;2023-03-04T04:19:19;7.50;99.90
14471;DHT22;7321;50.802;4.336;2023-03-04T04:21:45;7.60;99.90
14471;DHT22;7321;50.802;4.336;2023-03-04T04:24:12;7.60;99.90
14471;DHT22;7321;50.802;4.336;2023-03-04T04:26:38;7.50;99.90
14471;DHT22;7321;50.802;4.336;2023-03-04T04:29:04;7.30;99.90
14471;DHT22;7321;50.802;4.336;2023-03-04T04:31:30;7.10;99.90
14471;DHT22;7321;50.802;4.336;2023-03-04T04:33:55;7.20;99.90
14471;DHT22;7321;50.802;4.336;2023-03-04T04:36:21;7.20;99.90
14471;DHT22;7321;50.802;4.336;2023-03-04T04:38:47;7.10;99.90
14471;DHT22;7321;50.802;4.336;2023-03-04T04:41:26;7.10;99.90
14471;DHT22;7321;50.802;4.336;2023-03-04T04:43:53;7.20;99.90
14471;DHT22;7321;50.802;4.336;2023-03-04T04:46:19;7.20;99.90
14471;DHT22;7321;50.802;4.336;2023-03-04T04:48:45;7.40;99.90
14471;DHT22;7321;50.802;4.336;2023-03-04T04:51:11;7.40;99.90
14471;DHT22;7321;50.802;4.336;2023-03-04T04:53:38;7.50;99.90
14471;DHT22;7321;50.802;4.336;2023-03-04T04:56:12;7.40;99.90
14471;DHT22;7321;50.802;4.336;2023-03-04T04:58:38;7.50;99.90
14471;DHT22;7321;50.802;4.336;2023-03-04T05:01:04;7.50;99.90
14471;DHT22;7321;50.802;4.336;2023-03-04T05:03:31;7.40;99.90
14471;DHT22;7321;50.802;4.336;2023-03-04T05:05:57;7.40;99.90
14471;DHT22;7321;50.802;4.336;2023-03-04T05:08:23;7.40;99.90
14471;DHT22;7321;50.802;4.336;2023-03-04T05:10:49;7.60;99.90
14471;DHT22;7321;50.802;4.336;2023-03-04T05:13:15;7.70;99.90
14471;DHT22;7321;50.802;4.336;2023-03-04T05:15:41;7.70;99.90
14471;DHT22;7321;50.802;4.336;2023-03-04T05:18:07;7.70;99.90
14471;DHT22;7321;50.802;4.336;2023-03-04T05:20:32;7.60;99.90
14471;DHT22;7321;50.802;4.336;2023-03-04T05:22:58;7.70;99.90
14471;DHT22;7321;50.802;4.336;2023-03-04T05:25:24;7.60;99.90
14471;DHT22;7321;50.802;4.336;2023-03-04T05:27:50;7.40;99.90
14471;DHT22;7321;50.802;4.336;2023-03-04T05:30:16;7.30;99.90
14471;DHT22;7321;50.802;4.336;2023-03-04T05:32:41;7.30;99.90
14471;DHT22;7321;50.802;4.336;2023-03-04T05:35:08;7.10;99.90
14471;DHT22;7321;50.802;4.336;2023-03-04T05:37:34;7.00;99.90
14471;DHT22;7321;50.802;4.336;2023-03-04T05:39:59;6.90;99.90
14471;DHT22;7321;50.802;4.336;2023-03-04T05:42:25;6.70;99.90
14471;DHT22;7321;50.802;4.336;2023-03-04T05:44:51;6.60;99.90
14471;DHT22;7321;50.802;4.336;2023-03-04T05:47:17;6.70;99.90
14471;DHT22;7321;50.802;4.336;2023-03-04T05:49:43;6.90;99.90
14471;DHT22;7321;50.802;4.336;2023-03-04T05:52:09;6.90;99.90
14471;DHT22;7321;50.802;4.336;2023-03-04T05:54:35;7.00;99.90
14471;DHT22;7321;50.802;4.336;2023-03-04T05:57:01;7.00;99.90
14471;DHT22;7321;50.802;4.336;2023-03-04T05:59:27;6.90;99.90
14471;DHT22;7321;50.802;4.336;2023-03-04T06:01:53;6.90;99.90
14471;DHT22;7321;50.802;4.336;2023-03-04T06:04:19;7.00;99.90
14471;DHT22;7321;50.802;4.336;2023-03-04T06:06:44;7.10;99.90
14471;DHT22;7321;50.802;4.336;2023-03-04T06:09:12;7.40;99.90
14471;DHT22;7321;50.802;4.336;2023-03-04T06:11:39;7.40;99.90
14471;DHT22;7321;50.802;4.336;2023-03-04T06:14:04;7.50;99.90
14471;DHT22;7321;50.802;4.336;2023-03-04T06:16:31;7.30;99.90
14471;DHT22;7321;50.802;4.336;2023-03-04T06:18:57;7.10;99.90
14471;DHT22;7321;50.802;4.336;2023-03-04T06:21:23;7.10;99.90
14471;DHT22;7321;50.802;4.336;2023-03-04T06:23:48;7.10;99.90
14471;DHT22;7321;50.802;4.336;2023-03-04T06:26:14;6.90;99.90
14471;DHT22;7321;50.802;4.336;2023-03-04T06:28:44;6.90;99.90
14471;DHT22;7321;50.802;4.336;2023-03-04T06:31:10;6.90;99.90
14471;DHT22;7321;50.802;4.336;2023-03-04T06:33:36;7.00;99.90
14471;DHT22;7321;50.802;4.336;2023-03-04T06:36:02;7.10;99.90
14471;DHT22;7321;50.802;4.336;2023-03-04T06:38:28;7.10;99.90
14471;DHT22;7321;50.802;4.336;2023-03-04T06:40:54;7.10;99.90
14471;DHT22;7321;50.802;4.336;2023-03-04T06:43:20;7.00;99.90
14471;DHT22;7321;50.802;4.336;2023-03-04T06:45:49;7.20;99.90
14471;DHT22;7321;50.802;4.336;2023-03-04T06:48:15;7.00;99.90
14471;DHT22;7321;50.802;4.336;2023-03-04T06:50:41;6.90;99.90
14471;DHT22;7321;50.802;4.336;2023-03-04T06:53:06;6.90;99.90
14471;DHT22;7321;50.802;4.336;2023-03-04T06:55:32;7.00;99.90
14471;DHT22;7321;50.802;4.336;2023-03-04T06:57:58;7.00;99.90
14471;DHT22;7321;50.802;4.336;2023-03-04T07:00:24;7.10;99.90
14471;DHT22;7321;50.802;4.336;2023-03-04T07:02:50;7.10;99.90
14471;DHT22;7321;50.802;4.336;2023-03-04T07:05:16;7.30;99.90
14471;DHT22;7321;50.802;4.336;2023-03-04T07:07:42;7.50;99.90
14471;DHT22;7321;50.802;4.336;2023-03-04T07:10:08;7.60;99.90
14471;DHT22;7321;50.802;4.336;2023-03-04T07:12:35;7.60;99.90
14471;DHT22;7321;50.802;4.336;2023-03-04T07:15:01;7.70;99.90
14471;DHT22;7321;50.802;4.336;2023-03-04T07:17:27;7.80;99.90
14471;DHT22;7321;50.802;4.336;2023-03-04T07:19:53;7.80;99.90
14471;DHT22;7321;50.802;4.336;2023-03-04T07:22:19;7.80;99.90
14471;DHT22;7321;50.802;4.336;2023-03-04T07:24:44;7.50;99.90
14471;DHT22;7321;50.802;4.336;2023-03-04T07:27:10;7.40;99.90
14471;DHT22;7321;50.802;4.336;2023-03-04T07:29:36;7.50;99.90
14471;DHT22;7321;50.802;4.336;2023-03-04T07:32:06;7.60;99.90
14471;DHT22;7321;50.802;4.336;2023-03-04T07:34:33;7.60;99.90
14471;DHT22;7321;50.802;4.336;2023-03-04T07:36:59;7.60;99.90
14471;DHT22;7321;50.802;4.336;2023-03-04T07:39:24;7.40;99.90
14471;DHT22;7321;50.802;4.336;2023-03-04T07:41:50;7.50;99.90
14471;DHT22;7321;50.802;4.336;2023-03-04T07:44:16;7.50;99.90
14471;DHT22;7321;50.802;4.336;2023-03-04T07:46:42;7.40;99.90
14471;DHT22;7321;50.802;4.336;2023-03-04T07:49:11;7.40;99.90
14471;DHT22;7321;50.802;4.336;2023-03-04T07:51:37;7.40;99.90
14471;DHT22;7321;50.802;4.336;2023-03-04T07:54:03;7.20;99.90
14471;DHT22;7321;50.802;4.336;2023-03-04T07:56:31;7.30;99.90
14471;DHT22;7321;50.802;4.336;2023-03-04T07:58:57;7.10;99.90
14471;DHT22;7321;50.802;4.336;2023-03-04T08:01:35;7.30;99.90
14471;DHT22;7321;50.802;4.336;2023-03-04T08:04:03;7.30;99.90
14471;DHT22;7321;50.802;4.336;2023-03-04T08:06:29;7.50;99.90
14471;DHT22;7321;50.802;4.336;2023-03-04T08:08:57;7.60;99.90
14471;DHT22;7321;50.802;4.336;2023-03-04T08:11:24;7.50;99.90
14471;DHT22;7321;50.802;4.336;2023-03-04T08:13:50;7.40;99.90
14471;DHT22;7321;50.802;4.336;2023-03-04T08:16:20;7.10;99.90
14471;DHT22;7321;50.802;4.336;2023-03-04T08:18:48;7.20;99.90
14471;DHT22;7321;50.802;4.336;2023-03-04T08:21:16;7.00;99.90
14471;DHT22;7321;50.802;4.336;2023-03-04T08:23:44;7.20;99.90
14471;DHT22;7321;50.802;4.336;2023-03-04T08:28:44;7.10;99.90
14471;DHT22;7321;50.802;4.336;2023-03-04T08:31:14;7.20;99.90
14471;DHT22;7321;50.802;4.336;2023-03-04T08:33:41;7.30;99.90
14471;DHT22;7321;50.802;4.336;2023-03-04T08:36:07;7.30;99.90
14471;DHT22;7321;50.802;4.336;2023-03-04T08:38:34;7.50;99.90
14471;DHT22;7321;50.802;4.336;2023-03-04T08:41:00;7.60;99.90
14471;DHT22;7321;50.802;4.336;2023-03-04T08:43:26;7.40;99.90
14471;DHT22;7321;50.802;4.336;2023-03-04T08:45:53;7.40;99.90
14471;DHT22;7321;50.802;4.336;2023-03-04T08:48:19;7.50;99.90
14471;DHT22;7321;50.802;4.336;2023-03-04T08:50:46;7.80;99.90
14471;DHT22;7321;50.802;4.336;2023-03-04T08:53:13;7.70;99.90
14471;DHT22;7321;50.802;4.336;2023-03-04T08:55:40;7.50;99.90
14471;DHT22;7321;50.802;4.336;2023-03-04T08:58:06;7.50;99.90
14471;DHT22;7321;50.802;4.336;2023-03-04T09:00:34;7.60;99.90
14471;DHT22;7321;50.802;4.336;2023-03-04T09:03:00;7.60;99.90
14471;DHT22;7321;50.802;4.336;2023-03-04T09:05:28;7.70;99.90
14471;DHT22;7321;50.802;4.336;2023-03-04T09:07:54;7.90;99.90
14471;DHT22;7321;50.802;4.336;2023-03-04T09:10:20;7.70;99.90
14471;DHT22;7321;50.802;4.336;2023-03-04T09:12:46;7.80;99.90
14471;DHT22;7321;50.802;4.336;2023-03-04T09:15:13;7.90;99.90
14471;DHT22;7321;50.802;4.336;2023-03-04T09:17:39;7.70;99.90
14471;DHT22;7321;50.802;4.336;2023-03-04T09:20:07;7.70;99.90
14471;DHT22;7321;50.802;4.336;2023-03-04T09:22:39;7.90;99.90
14471;DHT22;7321;50.802;4.336;2023-03-04T09:25:05;7.70;99.90
14471;DHT22;7321;50.802;4.336;2023-03-04T09:27:32;7.60;99.90
14471;DHT22;7321;50.802;4.336;2023-03-04T09:29:58;7.40;99.90
14471;DHT22;7321;50.802;4.336;2023-03-04T09:32:24;7.40;99.90
14471;DHT22;7321;50.802;4.336;2023-03-04T09:34:50;7.50;99.90
14471;DHT22;7321;50.802;4.336;2023-03-04T09:37:16;7.60;99.90
14471;DHT22;7321;50.802;4.336;2023-03-04T09:39:42;7.70;99.90
14471;DHT22;7321;50.802;4.336;2023-03-04T09:42:10;7.70;99.90
14471;DHT22;7321;50.802;4.336;2023-03-04T09:44:40;7.60;99.90
14471;DHT22;7321;50.802;4.336;2023-03-04T09:47:12;7.50;99.90
14471;DHT22;7321;50.802;4.336;2023-03-04T09:49:42;7.60;99.90
14471;DHT22;7321;50.802;4.336;2023-03-04T09:52:36;7.60;99.90
14471;DHT22;7321;50.802;4.336;2023-03-04T09:55:20;7.70;99.90
14471;DHT22;7321;50.802;4.336;2023-03-04T10:03:17;7.70;99.90
14471;DHT22;7321;50.802;4.336;2023-03-04T10:08:35;7.50;99.90
14471;DHT22;7321;50.802;4.336;2023-03-04T10:11:08;7.40;99.90
14471;DHT22;7321;50.802;4.336;2023-03-04T10:16:06;7.40;99.90
14471;DHT22;7321;50.802;4.336;2023-03-04T10:19:00;7.50;99.90
14471;DHT22;7321;50.802;4.336;2023-03-04T10:21:51;7.50;99.90
14471;DHT22;7321;50.802;4.336;2023-03-04T10:24:20;7.60;99.90
14471;DHT22;7321;50.802;4.336;2023-03-04T10:26:57;7.70;99.90
14471;DHT22;7321;50.802;4.336;2023-03-04T10:29:27;7.90;99.90
14471;DHT22;7321;50.802;4.336;2023-03-04T10:31:53;7.90;99.90
14471;DHT22;7321;50.802;4.336;2023-03-04T10:34:21;8.00;99.90
14471;DHT22;7321;50.802;4.336;2023-03-04T10:37:02;8.10;99.90
14471;DHT22;7321;50.802;4.336;2023-03-04T10:39:43;8.10;99.90
14471;DHT22;7321;50.802;4.336;2023-03-04T10:44:53;8.00;99.90
14471;DHT22;7321;50.802;4.336;2023-03-04T10:47:26;8.00;99.90
14471;DHT22;7321;50.802;4.336;2023-03-04T10:50:00;7.90;99.90
14471;DHT22;7321;50.802;4.336;2023-03-04T10:52:33;8.00;99.90
14471;DHT22;7321;50.802;4.336;2023-03-04T10:55:03;8.10;99.90
14471;DHT22;7321;50.802;4.336;2023-03-04T10:57:34;8.10;99.90
14471;DHT22;7321;50.802;4.336;2023-03-04T11:02:47;8.10;99.90
14471;DHT22;7321;50.802;4.336;2023-03-04T11:05:18;8.20;99.90
14471;DHT22;7321;50.802;4.336;2023-03-04T11:07:49;8.30;99.90
14471;DHT22;7321;50.802;4.336;2023-03-04T11:10:23;8.30;99.90
14471;DHT22;7321;50.802;4.336;2023-03-04T11:12:58;8.40;99.90
14471;DHT22;7321;50.802;4.336;2023-03-04T11:15:26;8.30;99.90
14471;DHT22;7321;50.802;4.336;2023-03-04T11:18:03;8.20;99.90
14471;DHT22;7321;50.802;4.336;2023-03-04T11:20:36;8.30;99.90
14471;DHT22;7321;50.802;4.336;2023-03-04T11:25:57;8.40;99.90
14471;DHT22;7321;50.802;4.336;2023-03-04T11:28:48;8.20;99.90
14471;DHT22;7321;50.802;4.336;2023-03-04T11:31:32;8.20;99.90
14471;DHT22;7321;50.802;4.336;2023-03-04T11:42:16;8.70;99.90
14471;DHT22;7321;50.802;4.336;2023-03-04T11:44:44;8.70;99.90
14471;DHT22;7321;50.802;4.336;2023-03-04T12:00:22;9.10;99.90
14471;DHT22;7321;50.802;4.336;2023-03-04T12:09:02;9.40;99.90
14471;DHT22;7321;50.802;4.336;2023-03-04T12:14:55;9.50;99.90
14471;DHT22;7321;50.802;4.336;2023-03-04T12:26:32;9.40;99.90
14471;DHT22;7321;50.802;4.336;2023-03-04T12:34:59;9.40;99.90
14471;DHT22;7321;50.802;4.336;2023-03-04T12:37:34;9.10;99.90
14471;DHT22;7321;50.802;4.336;2023-03-04T12:45:48;9.40;99.90
14471;DHT22;7321;50.802;4.336;2023-03-04T12:48:36;9.50;99.90
14471;DHT22;7321;50.802;4.336;2023-03-04T12:59:36;10.00;99.90
14471;DHT22;7321;50.802;4.336;2023-03-04T13:10:40;9.80;99.90
14471;DHT22;7321;50.802;4.336;2023-03-04T13:16:27;9.90;99.90
14471;DHT22;7321;50.802;4.336;2023-03-04T13:18:51;9.80;99.90
14471;DHT22;7321;50.802;4.336;2023-03-04T13:21:22;9.80;99.90
14471;DHT22;7321;50.802;4.336;2023-03-04T13:23:49;9.70;99.90
14471;DHT22;7321;50.802;4.336;2023-03-04T13:28:44;10.00;99.90
14471;DHT22;7321;50.802;4.336;2023-03-04T13:31:14;10.00;99.90
14471;DHT22;7321;50.802;4.336;2023-03-04T13:36:53;9.70;99.90
14471;DHT22;7321;50.802;4.336;2023-03-04T13:39:25;9.60;99.90
14471;DHT22;7321;50.802;4.336;2023-03-04T13:41:53;9.70;99.90
14471;DHT22;7321;50.802;4.336;2023-03-04T13:47:16;9.70;99.90
14471;DHT22;7321;50.802;4.336;2023-03-04T13:49:43;9.70;99.90
14471;DHT22;7321;50.802;4.336;2023-03-04T13:55:37;9.80;99.90
14471;DHT22;7321;50.802;4.336;2023-03-04T13:58:19;9.90;99.90
14471;DHT22;7321;50.802;4.336;2023-03-04T14:00:52;10.00;99.90
14471;DHT22;7321;50.802;4.336;2023-03-04T14:03:27;10.00;99.90
14471;DHT22;7321;50.802;4.336;2023-03-04T14:06:40;10.00;99.90
14471;DHT22;7321;50.802;4.336;2023-03-04T14:09:15;10.30;99.90
14471;DHT22;7321;50.802;4.336;2023-03-04T14:11:42;10.40;99.90
14471;DHT22;7321;50.802;4.336;2023-03-04T14:14:17;10.40;99.90
14471;DHT22;7321;50.802;4.336;2023-03-04T14:16:56;10.50;99.90
14471;DHT22;7321;50.802;4.336;2023-03-04T14:19:31;10.60;99.90
14471;DHT22;7321;50.802;4.336;2023-03-04T14:22:00;10.50;99.90
14471;DHT22;7321;50.802;4.336;2023-03-04T14:24:26;10.50;99.90
14471;DHT22;7321;50.802;4.336;2023-03-04T14:27:12;10.30;99.90
14471;DHT22;7321;50.802;4.336;2023-03-04T14:29:39;10.10;99.90
14471;DHT22;7321;50.802;4.336;2023-03-04T14:32:05;10.10;99.90
14471;DHT22;7321;50.802;4.336;2023-03-04T14:34:36;10.20;99.90
14471;DHT22;7321;50.802;4.336;2023-03-04T14:37:22;10.20;99.90
14471;DHT22;7321;50.802;4.336;2023-03-04T14:39:55;10.10;99.90
14471;DHT22;7321;50.802;4.336;2023-03-04T14:42:24;9.90;99.90
14471;DHT22;7321;50.802;4.336;2023-03-04T14:44:54;9.90;99.90
14471;DHT22;7321;50.802;4.336;2023-03-04T14:47:43;9.90;99.90
14471;DHT22;7321;50.802;4.336;2023-03-04T14:50:16;9.90;99.90
14471;DHT22;7321;50.802;4.336;2023-03-04T14:52:48;9.90;99.90
14471;DHT22;7321;50.802;4.336;2023-03-04T14:55:24;10.00;99.90
14471;DHT22;7321;50.802;4.336;2023-03-04T14:57:52;10.00;99.90
14471;DHT22;7321;50.802;4.336;2023-03-04T15:00:28;9.90;99.90
14471;DHT22;7321;50.802;4.336;2023-03-04T15:02:56;9.80;99.90
14471;DHT22;7321;50.802;4.336;2023-03-04T15:05:26;9.90;99.90
14471;DHT22;7321;50.802;4.336;2023-03-04T15:08:21;9.80;99.90
14471;DHT22;7321;50.802;4.336;2023-03-04T15:11:00;9.70;99.90
14471;DHT22;7321;50.802;4.336;2023-03-04T15:13:45;9.80;99.90
14471;DHT22;7321;50.802;4.336;2023-03-04T15:16:15;9.90;99.90
14471;DHT22;7321;50.802;4.336;2023-03-04T15:18:58;9.80;99.90
14471;DHT22;7321;50.802;4.336;2023-03-04T15:23:55;9.70;99.90
14471;DHT22;7321;50.802;4.336;2023-03-04T15:26:21;9.70;99.90
14471;DHT22;7321;50.802;4.336;2023-03-04T15:28:47;9.70;99.90
14471;DHT22;7321;50.802;4.336;2023-03-04T15:31:18;9.50;99.90
14471;DHT22;7321;50.802;4.336;2023-03-04T15:33:45;9.40;99.90
14471;DHT22;7321;50.802;4.336;2023-03-04T15:36:16;9.40;99.90
14471;DHT22;7321;50.802;4.336;2023-03-04T15:38:45;9.50;99.90
14471;DHT22;7321;50.802;4.336;2023-03-04T15:41:14;9.30;99.90
14471;DHT22;7321;50.802;4.336;2023-03-04T15:43:41;9.40;99.90
14471;DHT22;7321;50.802;4.336;2023-03-04T15:46:10;9.50;99.90
14471;DHT22;7321;50.802;4.336;2023-03-04T15:48:36;9.60;99.90
14471;DHT22;7321;50.802;4.336;2023-03-04T15:51:03;9.60;99.90
14471;DHT22;7321;50.802;4.336;2023-03-04T15:53:33;9.70;99.90
14471;DHT22;7321;50.802;4.336;2023-03-04T15:56:01;9.80;99.90
14471;DHT22;7321;50.802;4.336;2023-03-04T15:58:28;9.90;99.90
14471;DHT22;7321;50.802;4.336;2023-03-04T16:00:54;9.90;99.90
14471;DHT22;7321;50.802;4.336;2023-03-04T16:03:21;10.10;99.90
14471;DHT22;7321;50.802;4.336;2023-03-04T16:05:49;10.10;99.90
14471;DHT22;7321;50.802;4.336;2023-03-04T16:08:18;9.90;99.90
14471;DHT22;7321;50.802;4.336;2023-03-04T16:10:47;9.90;99.90
14471;DHT22;7321;50.802;4.336;2023-03-04T16:15:55;10.00;99.90
14471;DHT22;7321;50.802;4.336;2023-03-04T16:24:59;10.20;99.90
14471;DHT22;7321;50.802;4.336;2023-03-04T16:28:31;10.20;99.90
14471;DHT22;7321;50.802;4.336;2023-03-04T16:41:38;9.70;99.90
14471;DHT22;7321;50.802;4.336;2023-03-04T16:54:53;9.60;99.90
14471;DHT22;7321;50.802;4.336;2023-03-04T16:57:45;9.50;99.90
14471;DHT22;7321;50.802;4.336;2023-03-04T17:00:42;9.50;99.90
14471;DHT22;7321;50.802;4.336;2023-03-04T17:03:11;9.40;99.90
14471;DHT22;7321;50.802;4.336;2023-03-04T17:05:37;9.50;99.90
14471;DHT22;7321;50.802;4.336;2023-03-04T17:08:02;9.80;99.90
14471;DHT22;7321;50.802;4.336;2023-03-04T17:10:28;9.70;99.90
14471;DHT22;7321;50.802;4.336;2023-03-04T17:12:54;9.50;99.90
14471;DHT22;7321;50.802;4.336;2023-03-04T17:15:22;9.40;99.90
14471;DHT22;7321;50.802;4.336;2023-03-04T17:17:48;9.30;99.90
14471;DHT22;7321;50.802;4.336;2023-03-04T17:20:17;9.30;99.90
14471;DHT22;7321;50.802;4.336;2023-03-04T17:22:43;9.10;99.90
14471;DHT22;7321;50.802;4.336;2023-03-04T17:25:13;9.10;99.90
14471;DHT22;7321;50.802;4.336;2023-03-04T17:27:40;9.10;99.90
14471;DHT22;7321;50.802;4.336;2023-03-04T17:30:07;9.00;99.90
14471;DHT22;7321;50.802;4.336;2023-03-04T17:32:33;9.10;99.90
14471;DHT22;7321;50.802;4.336;2023-03-04T17:34:59;9.10;99.90
14471;DHT22;7321;50.802;4.336;2023-03-04T17:37:25;9.00;99.90
14471;DHT22;7321;50.802;4.336;2023-03-04T17:39:51;9.00;99.90
14471;DHT22;7321;50.802;4.336;2023-03-04T17:42:17;9.10;99.90
14471;DHT22;7321;50.802;4.336;2023-03-04T17:44:44;9.00;99.90
14471;DHT22;7321;50.802;4.336;2023-03-04T17:47:11;9.00;99.90
14471;DHT22;7321;50.802;4.336;2023-03-04T17:49:36;8.90;99.90
14471;DHT22;7321;50.802;4.336;2023-03-04T17:52:03;8.90;99.90
14471;DHT22;7321;50.802;4.336;2023-03-04T17:54:29;8.90;99.90
14471;DHT22;7321;50.802;4.336;2023-03-04T17:56:55;8.90;99.90
14471;DHT22;7321;50.802;4.336;2023-03-04T17:59:21;8.90;99.90
14471;DHT22;7321;50.802;4.336;2023-03-04T18:01:47;9.00;99.90
14471;DHT22;7321;50.802;4.336;2023-03-04T18:04:14;9.00;99.90
14471;DHT22;7321;50.802;4.336;2023-03-04T18:06:41;9.00;99.90
14471;DHT22;7321;50.802;4.336;2023-03-04T18:09:07;8.90;99.90
14471;DHT22;7321;50.802;4.336;2023-03-04T18:11:36;8.90;99.90
14471;DHT22;7321;50.802;4.336;2023-03-04T18:14:02;8.80;99.90
14471;DHT22;7321;50.802;4.336;2023-03-04T18:16:28;8.80;99.90
14471;DHT22;7321;50.802;4.336;2023-03-04T18:18:56;8.90;99.90
14471;DHT22;7321;50.802;4.336;2023-03-04T18:21:22;8.80;99.90
14471;DHT22;7321;50.802;4.336;2023-03-04T18:23:48;8.70;99.90
14471;DHT22;7321;50.802;4.336;2023-03-04T18:26:17;8.60;99.90
14471;DHT22;7321;50.802;4.336;2023-03-04T18:28:43;8.60;99.90
14471;DHT22;7321;50.802;4.336;2023-03-04T18:31:09;8.60;99.90
14471;DHT22;7321;50.802;4.336;2023-03-04T18:33:36;8.70;99.90
14471;DHT22;7321;50.802;4.336;2023-03-04T18:36:05;8.80;99.90